Barrow, Illinois
Current Conditions -  °F | °C
As of 11:55 PM on Friday 19 Dec 2014 (Local Time) from KIJX Reporting Station
Overcast Overcast  
Wind Chill: 34°   Ceiling: 4800
Heat Index: 34°   Visibility: 7mi
Dew Point: 28°   Wind: 3mph
Humidity: 80%   Direction: 140°SE
Pressure: 30.27"   Gusts: NA
Location:  39.491°N, 90.2996°W
Report Text: KIJX 200555Z AUTO 14003KT 7SM OVC048 01/M02 A3027 RMK AO2 T00101021 10010 20006 400211016
Loading
Personal Weather Stations






























Interactive Weather Map New forecast layout! Learn more

10-Day Weather Forecast

Advertisements
Track Severe Weather on mobile